Time;durP1;ratioP1;P1;durP2;ratioP2;P2;SDS_P1;SDS_P2;PMS_P1;PMS_P2;Temp;Humidity;BMP_temperature;BMP_pressure;BME280_temperature;BME280_humidity;BME280_pressure;Samples;Min_cycle;Max_cycle;Signal;HPM_P1;HPM_P2
2021/03/21 00:00:27;;;;;;;6.77;4.60;;;2.60;99.90;;;;;;4903072;29;20391;-81
2021/03/21 00:02:53;;;;;;;7.57;3.53;;;2.50;99.90;;;;;;4903109;29;20450;-80
2021/03/21 00:05:19;;;;;;;7.03;3.97;;;2.30;99.90;;;;;;4903256;29;20373;-81
2021/03/21 00:07:45;;;;;;;5.33;3.90;;;2.40;99.90;;;;;;4902522;29;20461;-81
2021/03/21 00:10:12;;;;;;;5.00;4.20;;;2.40;99.90;;;;;;4901060;29;20373;-81
2021/03/21 00:12:37;;;;;;;6.07;3.93;;;2.50;99.90;;;;;;4902221;29;20516;-80
2021/03/21 00:15:06;;;;;;;5.23;4.73;;;2.80;99.90;;;;;;4901805;29;20376;-81
2021/03/21 00:17:33;;;;;;;4.40;4.00;;;2.70;99.90;;;;;;4902734;29;20174;-81
2021/03/21 00:19:58;;;;;;;5.60;5.00;;;2.80;99.90;;;;;;4902832;29;20394;-80
2021/03/21 00:22:24;;;;;;;6.20;4.63;;;3.00;99.90;;;;;;4902783;29;20468;-80
2021/03/21 00:24:50;;;;;;;4.47;3.23;;;3.00;99.90;;;;;;4902510;29;20201;-80
2021/03/21 00:27:16;;;;;;;12.13;4.40;;;2.70;99.90;;;;;;4902226;29;20586;-81
2021/03/21 00:29:43;;;;;;;8.43;4.40;;;2.60;99.90;;;;;;4902891;29;20615;-82
2021/03/21 00:32:09;;;;;;;4.13;3.83;;;2.60;99.90;;;;;;4901151;29;20381;-82
2021/03/21 00:34:38;;;;;;;5.90;4.70;;;2.90;99.90;;;;;;4902493;29;20505;-82
2021/03/21 00:37:04;;;;;;;4.43;3.93;;;3.10;99.90;;;;;;4902846;29;20413;-80
2021/03/21 00:39:30;;;;;;;3.97;3.60;;;3.20;99.90;;;;;;4903071;29;20560;-81
2021/03/21 00:41:56;;;;;;;5.10;3.97;;;3.20;99.90;;;;;;4902320;29;20882;-82
2021/03/21 00:44:22;;;;;;;3.90;3.57;;;3.10;99.90;;;;;;4902113;29;20428;-82
2021/03/21 00:46:47;;;;;;;10.87;4.30;;;3.10;99.90;;;;;;4902220;29;20196;-80
2021/03/21 00:49:13;;;;;;;4.03;3.70;;;2.80;99.90;;;;;;4902309;29;20170;-82
2021/03/21 00:51:39;;;;;;;4.07;3.67;;;2.60;99.90;;;;;;4901691;29;20161;-81
2021/03/21 00:54:05;;;;;;;3.60;3.30;;;2.50;99.90;;;;;;4902242;29;20161;-82
2021/03/21 00:56:35;;;;;;;4.50;4.07;;;2.40;99.90;;;;;;4901862;29;20165;-81
2021/03/21 00:59:01;;;;;;;5.50;2.63;;;2.50;99.90;;;;;;4901731;29;20169;-82
2021/03/21 01:01:30;;;;;;;4.27;3.40;;;2.50;99.90;;;;;;4902037;29;20445;-82
2021/03/21 01:03:56;;;;;;;7.13;4.30;;;2.60;99.90;;;;;;4901627;29;20540;-81
2021/03/21 01:06:21;;;;;;;4.47;4.07;;;2.60;99.90;;;;;;4901816;29;20398;-81
2021/03/21 01:08:53;;;;;;;6.20;3.97;;;2.40;99.90;;;;;;4900497;29;20671;-80
2021/03/21 01:11:25;;;;;;;3.33;3.10;;;2.50;99.90;;;;;;4901832;29;20166;-81
2021/03/21 01:13:51;;;;;;;5.97;3.87;;;2.50;99.90;;;;;;4901478;29;20406;-81
2021/03/21 01:16:21;;;;;;;3.53;3.23;;;2.60;99.90;;;;;;4901760;29;20408;-82
2021/03/21 01:18:49;;;;;;;4.50;4.10;;;2.80;99.90;;;;;;4901691;29;20397;-82
2021/03/21 01:21:16;;;;;;;3.87;3.57;;;2.70;99.90;;;;;;4901669;29;20380;-82
2021/03/21 01:23:44;;;;;;;3.73;3.43;;;2.50;99.90;;;;;;4902646;29;20540;-81
2021/03/21 01:26:15;;;;;;;4.33;3.67;;;2.50;99.90;;;;;;4905330;29;20408;-81
2021/03/21 01:28:42;;;;;;;4.40;3.13;;;2.40;99.90;;;;;;4905205;29;20397;-81
2021/03/21 01:31:12;;;;;;;3.20;3.00;;;2.60;99.90;;;;;;4905238;29;20372;-80
2021/03/21 01:33:37;;;;;;;6.07;3.10;;;2.40;99.90;;;;;;4904920;29;20759;-81
2021/03/21 01:36:08;;;;;;;3.20;3.00;;;2.60;99.90;;;;;;4905494;29;20412;-81
2021/03/21 01:38:34;;;;;;;3.37;2.97;;;2.40;99.90;;;;;;4905277;29;20836;-80
2021/03/21 01:41:03;;;;;;;3.87;3.10;;;2.50;99.90;;;;;;4905143;29;20484;-81
2021/03/21 01:43:32;;;;;;;5.77;4.07;;;2.50;99.90;;;;;;4905355;29;20647;-81
2021/03/21 01:45:58;;;;;;;3.47;3.20;;;2.50;99.90;;;;;;4903592;29;20472;-81
2021/03/21 01:48:39;;;;;;;5.10;4.57;;;2.50;99.90;;;;;;4904610;29;20869;-81
2021/03/21 01:51:13;;;;;;;7.33;4.53;;;2.60;99.90;;;;;;4903899;29;20412;-81
2021/03/21 01:53:42;;;;;;;3.10;2.90;;;2.70;99.90;;;;;;4905159;29;20404;-81
2021/03/21 01:56:10;;;;;;;4.77;4.30;;;2.80;99.90;;;;;;4905417;29;20376;-81
2021/03/21 01:58:37;;;;;;;6.73;3.70;;;2.90;99.90;;;;;;4904936;29;20412;-81
2021/03/21 02:01:14;;;;;;;4.50;4.17;;;2.60;99.90;;;;;;4904967;29;20377;-81
2021/03/21 02:03:39;;;;;;;5.10;4.03;;;2.90;99.90;;;;;;4904337;29;20488;-81
2021/03/21 02:06:24;;;;;;;5.10;3.67;;;2.80;99.90;;;;;;4904869;29;20394;-81
2021/03/21 02:08:56;;;;;;;6.30;3.50;;;3.10;99.90;;;;;;4904992;29;20521;-81
2021/03/21 02:11:45;;;;;;;5.63;4.27;;;3.00;99.90;;;;;;4905066;29;20398;-81
2021/03/21 02:14:22;;;;;;;4.57;4.17;;;3.10;99.90;;;;;;4904843;29;20398;-81
2021/03/21 02:16:58;;;;;;;5.07;3.73;;;2.80;99.90;;;;;;4904276;29;20391;-81
2021/03/21 02:19:50;;;;;;;4.57;4.07;;;2.90;99.90;;;;;;4903739;29;20392;-81
2021/03/21 02:22:27;;;;;;;4.27;3.13;;;2.80;99.90;;;;;;4904999;29;20376;-81
2021/03/21 02:25:24;;;;;;;6.23;4.30;;;3.10;99.90;;;;;;4903099;29;20455;-81
2021/03/21 02:28:16;;;;;;;3.60;3.30;;;3.10;99.90;;;;;;4904864;29;20398;-81
2021/03/21 02:30:45;;;;;;;3.07;2.67;;;2.60;99.90;;;;;;4904863;29;20398;-80
2021/03/21 02:33:17;;;;;;;6.57;4.83;;;2.60;99.90;;;;;;4903736;29;20391;-81
2021/03/21 02:35:55;;;;;;;5.83;4.03;;;2.90;99.90;;;;;;4907906;29;20405;-79
2021/03/21 02:38:31;;;;;;;5.57;3.60;;;3.10;99.90;;;;;;4914764;29;20376;-79
2021/03/21 02:41:04;;;;;;;7.03;4.27;;;3.00;99.90;;;;;;4904753;29;20424;-81
2021/03/21 02:43:36;;;;;;;5.37;3.43;;;2.90;99.90;;;;;;4904974;29;20424;-82
2021/03/21 02:46:08;;;;;;;4.37;3.80;;;2.80;99.90;;;;;;4904883;29;20497;-82
2021/03/21 02:48:43;;;;;;;5.17;4.67;;;2.90;99.90;;;;;;4904563;29;20365;-81
2021/03/21 02:51:14;;;;;;;5.77;3.40;;;2.90;99.90;;;;;;4905153;29;20368;-82
2021/03/21 02:53:44;;;;;;;4.50;3.20;;;2.90;99.90;;;;;;4905129;29;20448;-81
2021/03/21 02:56:16;;;;;;;4.60;4.10;;;2.70;99.90;;;;;;4905017;29;20384;-81
2021/03/21 02:58:47;;;;;;;5.10;3.70;;;2.90;99.90;;;;;;4905204;29;20405;-81
2021/03/21 03:01:19;;;;;;;5.23;3.80;;;3.00;99.90;;;;;;4905871;29;20398;-81
2021/03/21 03:03:48;;;;;;;3.40;3.10;;;2.90;99.90;;;;;;4902624;29;20420;-81
2021/03/21 03:06:21;;;;;;;3.57;3.27;;;2.90;99.90;;;;;;4903781;29;20379;-80
2021/03/21 03:08:52;;;;;;;8.13;4.00;;;3.00;99.90;;;;;;4903457;29;20400;-81
2021/03/21 03:11:24;;;;;;;4.40;3.80;;;3.20;99.90;;;;;;4903601;29;20694;-81
2021/03/21 03:13:57;;;;;;;4.80;3.50;;;3.20;99.90;;;;;;4903747;29;20440;-80
2021/03/21 03:16:27;;;;;;;3.00;2.80;;;3.10;99.90;;;;;;4903720;29;20372;-81
2021/03/21 03:19:05;;;;;;;4.93;3.70;;;2.90;99.90;;;;;;4905421;29;20955;-80
2021/03/21 03:21:44;;;;;;;4.00;3.70;;;2.60;99.90;;;;;;4908759;29;20710;-81
2021/03/21 03:24:16;;;;;;;8.40;4.63;;;2.60;99.90;;;;;;4908131;29;20442;-81
2021/03/21 03:27:12;;;;;;;4.00;3.60;;;2.70;99.90;;;;;;4909298;29;20720;-80
2021/03/21 03:29:47;;;;;;;4.00;3.70;;;2.90;99.90;;;;;;4903728;29;20398;-81
2021/03/21 03:32:14;;;;;;;4.20;3.40;;;3.00;99.90;;;;;;4904162;29;20372;-81
2021/03/21 03:34:46;;;;;;;27.43;4.17;;;3.00;99.90;;;;;;4903928;29;20456;-81
2021/03/21 03:37:12;;;;;;;5.67;4.20;;;2.80;99.90;;;;;;4903617;29;20405;-81
2021/03/21 03:39:39;;;;;;;6.37;4.40;;;2.90;99.90;;;;;;4904081;29;20489;-81
2021/03/21 03:42:18;;;;;;;4.80;4.20;;;2.80;99.90;;;;;;4902762;29;20373;-81
2021/03/21 03:45:08;;;;;;;4.43;3.70;;;2.80;99.90;;;;;;4903324;29;20809;-81
2021/03/21 03:47:52;;;;;;;4.03;3.30;;;3.00;99.90;;;;;;4902420;29;20437;-81
2021/03/21 03:50:40;;;;;;;3.60;3.30;;;3.10;99.90;;;;;;4902766;29;20477;-82
2021/03/21 03:53:24;;;;;;;8.43;3.40;;;3.00;99.90;;;;;;4903152;29;20723;-81
2021/03/21 03:56:06;;;;;;;3.43;3.00;;;2.90;99.90;;;;;;4902518;29;20375;-81
2021/03/21 03:58:49;;;;;;;4.73;3.60;;;2.80;99.90;;;;;;4902789;29;20380;-81
2021/03/21 04:01:26;;;;;;;12.30;3.60;;;2.70;99.90;;;;;;4903002;29;20769;-81
2021/03/21 04:03:57;;;;;;;6.20;4.03;;;2.80;99.90;;;;;;4902707;29;20589;-81
2021/03/21 04:06:36;;;;;;;3.40;3.10;;;2.60;99.90;;;;;;4902817;29;20460;-81
2021/03/21 04:09:16;;;;;;;3.83;3.43;;;2.80;99.90;;;;;;4901180;29;20457;-81
2021/03/21 04:12:11;;;;;;;7.83;4.47;;;2.80;99.90;;;;;;4902883;29;20436;-80
2021/03/21 04:14:45;;;;;;;7.93;4.13;;;2.90;99.90;;;;;;4903009;29;20405;-81
2021/03/21 04:17:19;;;;;;;3.63;3.33;;;2.70;99.90;;;;;;4902640;29;20371;-81
2021/03/21 04:19:52;;;;;;;7.50;3.73;;;2.90;99.90;;;;;;4902185;29;20769;-81
2021/03/21 04:22:24;;;;;;;3.80;3.40;;;3.20;99.90;;;;;;4902561;29;20402;-81
2021/03/21 04:24:57;;;;;;;4.20;3.00;;;3.00;99.90;;;;;;4902660;29;20453;-81
2021/03/21 04:27:26;;;;;;;5.10;3.30;;;3.00;99.90;;;;;;4902329;29;20462;-81
2021/03/21 04:29:58;;;;;;;5.60;3.23;;;2.80;99.90;;;;;;4902402;29;20456;-81
2021/03/21 04:32:32;;;;;;;7.37;2.97;;;2.80;99.90;;;;;;4900783;29;20413;-81
2021/03/21 04:35:03;;;;;;;5.13;3.90;;;2.80;99.90;;;;;;4902458;29;20525;-81
2021/03/21 04:37:30;;;;;;;5.03;4.57;;;2.60;99.90;;;;;;4902457;29;20406;-81
2021/03/21 04:39:57;;;;;;;7.57;4.57;;;2.70;99.90;;;;;;4902224;29;20527;-81
2021/03/21 04:42:40;;;;;;;4.43;3.70;;;2.50;99.90;;;;;;4902258;29;20376;-82
2021/03/21 04:45:15;;;;;;;3.97;3.60;;;2.70;99.90;;;;;;4902212;29;20738;-81
2021/03/21 04:47:54;;;;;;;4.03;3.53;;;2.80;99.90;;;;;;4902513;29;20372;-81
2021/03/21 04:50:20;;;;;;;5.90;4.20;;;2.60;99.90;;;;;;4902608;29;20394;-81
2021/03/21 04:53:16;;;;;;;5.00;4.60;;;2.50;99.90;;;;;;4902233;29;20394;-81
2021/03/21 04:55:46;;;;;;;3.93;3.53;;;2.60;99.90;;;;;;4900828;29;20407;-81
2021/03/21 04:58:21;;;;;;;7.30;4.37;;;2.60;99.90;;;;;;4904278;29;20411;-81
2021/03/21 05:00:48;;;;;;;4.40;4.00;;;2.50;99.90;;;;;;4906166;29;20455;-81
2021/03/21 05:03:29;;;;;;;3.80;3.50;;;2.50;99.90;;;;;;4905784;29;20441;-80
2021/03/21 05:06:01;;;;;;;5.00;3.90;;;2.50;99.90;;;;;;4906291;29;20481;-80
2021/03/21 05:08:35;;;;;;;4.70;4.10;;;2.60;99.90;;;;;;4906046;29;20436;-82
2021/03/21 05:11:04;;;;;;;5.73;3.83;;;2.60;99.90;;;;;;4916431;29;20397;-82
2021/03/21 05:13:45;;;;;;;10.73;4.60;;;2.60;99.90;;;;;;4917093;29;20402;-82
2021/03/21 05:16:32;;;;;;;6.93;4.33;;;2.70;99.90;;;;;;4907205;29;20448;-83
2021/03/21 05:19:11;;;;;;;9.50;4.10;;;2.80;99.90;;;;;;4907498;29;20452;-83
2021/03/21 05:21:42;;;;;;;4.60;3.83;;;3.00;99.90;;;;;;4907584;29;20384;-82
2021/03/21 05:24:23;;;;;;;4.37;3.97;;;3.00;99.90;;;;;;4908271;29;20446;-79
2021/03/21 05:27:02;;;;;;;3.30;3.03;;;2.80;99.90;;;;;;4902554;29;20377;-79
2021/03/21 05:29:46;;;;;;;4.70;3.90;;;2.80;99.90;;;;;;4908016;29;20417;-81
2021/03/21 05:32:16;;;;;;;5.67;4.13;;;2.80;99.90;;;;;;4907158;29;20451;-82
2021/03/21 05:34:42;;;;;;;4.80;3.37;;;2.90;99.90;;;;;;4906758;29;20381;-83
2021/03/21 05:37:35;;;;;;;3.53;3.23;;;2.90;99.90;;;;;;4906795;29;20372;-82
2021/03/21 05:40:38;;;;;;;4.33;3.83;;;2.90;99.90;;;;;;4890397;29;20457;-82
2021/03/21 05:43:28;;;;;;;4.63;3.17;;;2.80;99.90;;;;;;4894239;29;20423;-82
2021/03/21 05:46:20;;;;;;;4.17;3.40;;;2.70;99.90;;;;;;4906224;29;20391;-82
2021/03/21 05:49:11;;;;;;;3.60;3.37;;;2.80;99.90;;;;;;4905335;29;20468;-82
2021/03/21 05:52:06;;;;;;;3.40;3.10;;;3.00;99.90;;;;;;4906797;29;20424;-82
2021/03/21 05:54:57;;;;;;;5.57;4.10;;;2.90;99.90;;;;;;4909588;29;20391;-81
2021/03/21 05:57:48;;;;;;;7.73;3.70;;;3.00;99.90;;;;;;4909798;29;20375;-81
2021/03/21 06:00:49;;;;;;;4.20;3.80;;;3.00;99.90;;;;;;4907541;29;20410;-82
2021/03/21 06:03:49;;;;;;;4.60;3.63;;;2.90;99.90;;;;;;4906321;29;20467;-82
2021/03/21 06:06:37;;;;;;;4.43;3.63;;;3.00;99.90;;;;;;4905375;29;20407;-82
2021/03/21 06:09:31;;;;;;;4.03;2.80;;;2.90;99.90;;;;;;4904702;29;20441;-82
2021/03/21 06:12:26;;;;;;;7.07;4.27;;;3.00;99.90;;;;;;4904261;29;20803;-82
2021/03/21 06:15:17;;;;;;;4.50;3.33;;;3.00;99.90;;;;;;4892078;29;20388;-81
2021/03/21 06:18:19;;;;;;;7.03;5.30;;;3.20;99.90;;;;;;4904960;29;20402;-81
2021/03/21 06:21:05;;;;;;;5.10;4.30;;;3.40;99.90;;;;;;4904658;29;20372;-81
2021/03/21 06:23:55;;;;;;;6.77;5.53;;;3.30;99.90;;;;;;4905358;29;20424;-81
2021/03/21 06:26:37;;;;;;;6.57;4.20;;;3.40;99.90;;;;;;4904579;29;20697;-81
2021/03/21 06:29:29;;;;;;;7.23;3.83;;;3.50;99.90;;;;;;4905005;29;20794;-81
2021/03/21 06:32:21;;;;;;;5.80;4.23;;;3.50;99.90;;;;;;4904022;29;20361;-81
2021/03/21 06:35:02;;;;;;;9.97;5.10;;;3.40;99.90;;;;;;4904668;29;20410;-81
2021/03/21 06:37:48;;;;;;;5.37;4.87;;;3.20;99.90;;;;;;4905070;29;20572;-81
2021/03/21 06:40:38;;;;;;;10.80;4.57;;;3.40;99.90;;;;;;4904682;29;20930;-81
2021/03/21 06:43:32;;;;;;;6.40;4.93;;;3.20;99.90;;;;;;4905129;29;20449;-82
2021/03/21 06:46:24;;;;;;;6.80;5.00;;;3.30;99.90;;;;;;4905082;29;20861;-82
2021/03/21 06:49:19;;;;;;;20.53;5.87;;;3.50;99.90;;;;;;4904353;29;20368;-82
2021/03/21 06:52:00;;;;;;;8.20;4.63;;;3.80;99.90;;;;;;4904795;29;20371;-81
2021/03/21 06:54:33;;;;;;;9.47;5.70;;;4.00;99.90;;;;;;4905322;29;20377;-82
2021/03/21 06:57:29;;;;;;;9.00;6.00;;;4.10;99.90;;;;;;4905218;29;20500;-82
2021/03/21 07:00:33;;;;;;;7.67;5.40;;;4.20;99.90;;;;;;4912721;29;20373;-79
2021/03/21 07:03:27;;;;;;;6.90;5.37;;;4.30;99.90;;;;;;4917198;29;20368;-79
2021/03/21 07:06:30;;;;;;;10.50;7.40;;;4.30;99.90;;;;;;4916730;29;20377;-79
2021/03/21 07:09:08;;;;;;;7.27;5.70;;;4.30;99.90;;;;;;4916277;29;20416;-79
2021/03/21 07:11:59;;;;;;;9.13;7.23;;;4.50;99.90;;;;;;4906999;29;20432;-82
2021/03/21 07:14:55;;;;;;;9.60;7.50;;;4.60;99.90;;;;;;4904303;29;20387;-82
2021/03/21 07:17:54;;;;;;;6.53;5.23;;;4.60;99.90;;;;;;4906027;29;20440;-81
2021/03/21 07:20:51;;;;;;;10.37;6.10;;;4.60;99.90;;;;;;4905449;29;20432;-82
2021/03/21 07:23:44;;;;;;;8.43;5.43;;;4.40;99.90;;;;;;4905404;29;20513;-81
2021/03/21 07:26:41;;;;;;;8.93;5.57;;;4.20;99.90;;;;;;4906049;29;20371;-81
2021/03/21 07:29:32;;;;;;;7.33;5.87;;;4.40;99.90;;;;;;4908827;29;20405;-80
2021/03/21 07:32:15;;;;;;;11.30;5.60;;;4.60;99.90;;;;;;4914589;29;20373;-80
2021/03/21 07:35:00;;;;;;;6.93;5.90;;;4.60;99.90;;;;;;4915006;29;20402;-79
2021/03/21 07:37:52;;;;;;;9.73;6.50;;;4.70;99.90;;;;;;4916809;29;20388;-79
2021/03/21 07:40:41;;;;;;;12.70;6.20;;;4.70;99.90;;;;;;4916270;29;20453;-79
2021/03/21 07:43:34;;;;;;;7.63;6.33;;;4.80;99.90;;;;;;5111790;27;20510;-82
2021/03/21 07:46:25;;;;;;;16.47;9.03;;;4.70;99.90;;;;;;5112779;28;20393;-82
2021/03/21 07:49:10;;;;;;;11.97;6.53;;;4.50;99.90;;;;;;5095792;28;20489;-83
2021/03/21 07:52:10;;;;;;;9.97;6.83;;;4.70;99.90;;;;;;5096414;28;20397;-82
2021/03/21 07:54:42;;;;;;;9.47;6.70;;;4.60;99.90;;;;;;5095740;28;20618;-82
2021/03/21 07:57:38;;;;;;;11.07;7.53;;;4.60;99.90;;;;;;5096574;28;20458;-82
2021/03/21 08:00:06;;;;;;;18.73;7.63;;;4.60;99.90;;;;;;5096465;28;20372;-83
2021/03/21 08:02:31;;;;;;;15.33;8.77;;;4.60;99.90;;;;;;5096161;28;20440;-82
2021/03/21 08:05:06;;;;;;;17.27;7.60;;;4.70;99.90;;;;;;5096616;28;20372;-82
2021/03/21 08:07:34;;;;;;;9.20;7.10;;;4.80;99.90;;;;;;5096000;28;20197;-83
2021/03/21 08:10:12;;;;;;;9.83;6.90;;;4.90;99.90;;;;;;5097320;28;20408;-82
2021/03/21 08:12:45;;;;;;;8.73;6.33;;;4.60;99.90;;;;;;5098462;28;20387;-82
2021/03/21 08:15:22;;;;;;;11.50;7.20;;;4.80;99.90;;;;;;5106769;28;20405;-80
2021/03/21 08:18:00;;;;;;;13.83;7.47;;;4.70;99.90;;;;;;5101002;28;20867;-81
2021/03/21 08:20:35;;;;;;;11.93;8.17;;;4.70;99.90;;;;;;5107435;28;20376;-80
2021/03/21 08:23:20;;;;;;;13.70;7.50;;;4.80;99.90;;;;;;5107441;28;20430;-81
2021/03/21 08:25:47;;;;;;;12.93;9.00;;;4.80;99.90;;;;;;5104915;28;20379;-81
2021/03/21 08:28:17;;;;;;;13.87;6.63;;;4.80;99.90;;;;;;5106105;28;20397;-80
2021/03/21 08:30:55;;;;;;;8.40;5.53;;;4.60;99.90;;;;;;5105584;28;20378;-81
2021/03/21 08:33:30;;;;;;;10.83;7.67;;;4.40;99.90;;;;;;5106491;28;20375;-82
2021/03/21 08:36:17;;;;;;;10.00;6.63;;;4.50;99.90;;;;;;5104278;28;20378;-80
2021/03/21 08:39:12;;;;;;;12.13;6.73;;;4.50;99.90;;;;;;5105880;28;20397;-80
2021/03/21 08:41:50;;;;;;;11.47;6.60;;;4.60;99.90;;;;;;5103339;28;20446;-80
2021/03/21 08:44:32;;;;;;;17.97;7.07;;;4.70;99.90;;;;;;5099383;28;20408;-82
2021/03/21 08:46:59;;;;;;;9.73;7.50;;;4.80;99.90;;;;;;5095290;28;20360;-82
2021/03/21 08:49:29;;;;;;;13.20;6.97;;;4.90;99.90;;;;;;5094803;28;20484;-82
2021/03/21 08:51:55;;;;;;;9.10;7.40;;;5.00;99.90;;;;;;5094689;28;20372;-82
2021/03/21 08:54:26;;;;;;;12.80;7.30;;;5.00;99.90;;;;;;5065105;28;20379;-82
2021/03/21 08:57:14;;;;;;;13.10;7.03;;;4.80;99.90;;;;;;5081247;28;20305;-82
2021/03/21 08:59:43;;;;;;;13.80;7.70;;;4.90;99.90;;;;;;5080190;28;20383;-82
2021/03/21 09:02:14;;;;;;;10.07;6.47;;;4.80;99.90;;;;;;5080659;28;20500;-81
2021/03/21 09:04:44;;;;;;;10.90;7.80;;;4.90;99.90;;;;;;5082280;28;20390;-80
2021/03/21 09:07:21;;;;;;;11.77;6.20;;;5.30;99.90;;;;;;5080475;28;20481;-82
2021/03/21 09:10:21;;;;;;;9.57;6.50;;;5.50;99.90;;;;;;5080791;28;20364;-82
2021/03/21 09:12:50;;;;;;;13.37;6.53;;;5.40;99.90;;;;;;5080931;28;20483;-81
2021/03/21 09:15:27;;;;;;;7.30;6.03;;;5.40;99.90;;;;;;5079789;28;20783;-81
2021/03/21 09:18:05;;;;;;;12.90;8.30;;;5.40;99.90;;;;;;5080485;28;20379;-81
2021/03/21 09:20:34;;;;;;;10.07;7.00;;;5.40;99.90;;;;;;5080541;28;20424;-82
2021/03/21 09:22:59;;;;;;;11.40;6.60;;;5.40;99.90;;;;;;5081334;28;20441;-82
2021/03/21 09:25:31;;;;;;;12.00;7.70;;;5.50;99.90;;;;;;5080850;28;20535;-82
2021/03/21 09:27:58;;;;;;;8.20;6.67;;;5.60;99.90;;;;;;5084438;28;20224;-83
2021/03/21 09:30:45;;;;;;;10.37;6.30;;;5.20;99.90;;;;;;5068558;28;20432;-81
2021/03/21 09:33:15;;;;;;;9.73;6.93;;;5.60;99.90;;;;;;5087071;28;20398;-82
2021/03/21 09:35:58;;;;;;;10.50;7.47;;;5.70;99.90;;;;;;5084945;28;20377;-82
2021/03/21 09:38:27;;;;;;;11.73;6.23;;;5.80;99.90;;;;;;5079417;28;20376;-82
2021/03/21 09:40:56;;;;;;;10.90;7.00;;;5.80;99.90;;;;;;5080058;28;20368;-82
2021/03/21 09:43:29;;;;;;;6.77;5.53;;;6.10;99.90;;;;;;5081067;28;20421;-83
2021/03/21 09:46:19;;;;;;;9.77;6.80;;;6.10;99.90;;;;;;5046429;28;20394;-82
2021/03/21 09:49:01;;;;;;;10.33;5.80;;;6.50;99.90;;;;;;5082115;28;20375;-83
2021/03/21 09:51:41;;;;;;;10.13;7.67;;;6.70;99.90;;;;;;5063326;28;20422;-82
2021/03/21 09:54:42;;;;;;;13.53;7.10;;;6.90;99.90;;;;;;5080132;28;20379;-82
2021/03/21 09:57:32;;;;;;;8.40;6.87;;;6.90;99.90;;;;;;5079771;28;20466;-81
2021/03/21 10:00:28;;;;;;;10.77;7.00;;;6.80;99.90;;;;;;5078400;28;20463;-82
2021/03/21 10:03:08;;;;;;;11.10;8.33;;;6.80;99.90;;;;;;5081575;28;20467;-81
2021/03/21 10:05:56;;;;;;;11.70;7.90;;;6.90;99.90;;;;;;5077280;28;20448;-81
2021/03/21 10:08:55;;;;;;;13.30;8.07;;;6.90;99.90;;;;;;5078682;28;20741;-82
2021/03/21 10:11:28;;;;;;;15.37;8.50;;;7.10;99.90;;;;;;5078027;28;20406;-82
2021/03/21 10:13:54;;;;;;;12.43;7.80;;;7.30;99.90;;;;;;5080243;28;20405;-83
2021/03/21 10:16:31;;;;;;;12.53;8.77;;;6.70;99.90;;;;;;5061451;28;20404;-83
2021/03/21 10:19:00;;;;;;;11.70;7.40;;;6.90;99.90;;;;;;5078168;28;20386;-83
2021/03/21 10:21:31;;;;;;;11.40;7.70;;;6.70;99.90;;;;;;5079042;28;20514;-83
2021/03/21 10:24:32;;;;;;;19.03;9.37;;;6.60;99.90;;;;;;5078930;28;20376;-83
2021/03/21 10:27:34;;;;;;;12.40;7.70;;;6.50;99.90;;;;;;5078710;28;20421;-83
2021/03/21 10:30:33;;;;;;;13.53;8.60;;;6.20;99.90;;;;;;5063585;28;20367;-82
2021/03/21 10:33:28;;;;;;;10.53;7.80;;;6.20;99.90;;;;;;5079014;28;20408;-81
2021/03/21 10:35:55;;;;;;;10.67;7.40;;;6.10;99.90;;;;;;5078191;28;20428;-83
2021/03/21 10:38:47;;;;;;;10.80;6.93;;;6.00;99.90;;;;;;5079448;28;20489;-83
2021/03/21 10:41:46;;;;;;;7.73;6.50;;;5.90;99.90;;;;;;5078923;28;20511;-82
2021/03/21 10:44:12;;;;;;;10.20;7.27;;;5.80;99.90;;;;;;5077623;28;20533;-82
2021/03/21 10:46:45;;;;;;;8.53;7.63;;;5.80;99.90;;;;;;5078809;28;20418;-82
2021/03/21 10:49:11;;;;;;;11.70;8.93;;;5.80;99.90;;;;;;5078880;28;20186;-82
2021/03/21 10:52:06;;;;;;;9.27;7.07;;;5.90;99.90;;;;;;5061132;28;20377;-83
2021/03/21 10:54:32;;;;;;;16.40;8.43;;;5.90;99.90;;;;;;5079211;28;20425;-83
2021/03/21 10:57:32;;;;;;;11.43;9.00;;;5.90;99.90;;;;;;5079236;28;20380;-82
2021/03/21 11:00:12;;;;;;;14.00;8.50;;;5.90;99.90;;;;;;5080634;28;20170;-82
2021/03/21 11:02:42;;;;;;;12.33;9.60;;;6.00;99.90;;;;;;5087661;28;20424;-83
2021/03/21 11:05:24;;;;;;;20.10;9.93;;;5.70;99.90;;;;;;5083763;28;20394;-83
2021/03/21 11:08:05;;;;;;;15.07;9.30;;;5.90;99.90;;;;;;5079371;28;20436;-82
2021/03/21 11:10:37;;;;;;;11.27;8.13;;;5.90;99.90;;;;;;5079592;28;20368;-83
2021/03/21 11:13:39;;;;;;;11.23;7.90;;;6.00;99.90;;;;;;5079160;28;20468;-83
2021/03/21 11:16:15;;;;;;;9.43;7.70;;;6.10;99.90;;;;;;5049642;28;20422;-83
2021/03/21 11:18:48;;;;;;;12.17;8.30;;;6.10;99.90;;;;;;5044360;28;20378;-82
2021/03/21 11:21:24;;;;;;;9.67;7.83;;;6.20;99.90;;;;;;5077132;28;20531;-83
2021/03/21 11:23:58;;;;;;;12.53;8.80;;;6.20;99.90;;;;;;5078785;28;20471;-82
2021/03/21 11:26:33;;;;;;;12.53;8.20;;;6.30;99.90;;;;;;5079478;28;20399;-82
2021/03/21 11:29:29;;;;;;;10.67;7.90;;;6.30;99.90;;;;;;5078705;28;20390;-82
2021/03/21 11:32:10;;;;;;;8.93;7.90;;;6.70;99.90;;;;;;5078807;28;20409;-82
2021/03/21 11:34:36;;;;;;;11.60;7.70;;;6.70;99.90;;;;;;5078351;28;20380;-81
2021/03/21 11:37:06;;;;;;;9.63;6.43;;;6.80;99.90;;;;;;5079598;28;20439;-81
2021/03/21 11:39:43;;;;;;;9.20;7.10;;;6.80;99.90;;;;;;5077846;28;20536;-83
2021/03/21 11:42:21;;;;;;;13.77;8.47;;;7.20;99.90;;;;;;5061171;28;20799;-83
2021/03/21 11:44:50;;;;;;;8.73;6.83;;;7.00;99.90;;;;;;5077674;28;20368;-84
2021/03/21 11:47:30;;;;;;;7.00;5.93;;;7.30;99.90;;;;;;5082990;28;20368;-81
2021/03/21 11:49:58;;;;;;;13.63;7.30;;;7.60;99.90;;;;;;5084663;28;20404;-81
2021/03/21 11:52:26;;;;;;;9.37;6.60;;;7.90;99.90;;;;;;5086331;28;20412;-82
2021/03/21 11:54:53;;;;;;;6.83;6.13;;;8.20;99.90;;;;;;5086526;28;20398;-79
2021/03/21 11:57:28;;;;;;;6.90;5.90;;;8.20;99.90;;;;;;5083979;28;20397;-80
2021/03/21 12:00:07;;;;;;;6.20;5.60;;;8.30;99.90;;;;;;5083577;28;20390;-81
2021/03/21 12:02:48;;;;;;;8.73;5.83;;;8.50;99.90;;;;;;5082190;28;20948;-81
2021/03/21 12:05:19;;;;;;;7.87;5.83;;;8.50;99.90;;;;;;5084276;28;20492;-82
2021/03/21 12:07:45;;;;;;;6.40;5.33;;;8.40;99.90;;;;;;5082535;28;20421;-81
2021/03/21 12:10:27;;;;;;;9.23;6.73;;;8.30;99.90;;;;;;5083023;28;20442;-80
2021/03/21 12:12:53;;;;;;;9.13;6.03;;;8.50;99.90;;;;;;5083300;28;20412;-81
2021/03/21 12:15:37;;;;;;;7.73;5.67;;;8.60;99.90;;;;;;5083236;28;20369;-81
2021/03/21 12:18:14;;;;;;;5.80;5.20;;;8.70;99.90;;;;;;5083095;28;20171;-81
2021/03/21 12:20:47;;;;;;;5.87;5.13;;;8.80;99.90;;;;;;5082025;28;20412;-81
2021/03/21 12:23:26;;;;;;;6.73;5.20;;;8.70;99.90;;;;;;5082229;28;20839;-80
2021/03/21 12:26:06;;;;;;;4.53;4.00;;;8.80;99.90;;;;;;5082909;28;20428;-81
2021/03/21 12:28:37;;;;;;;7.93;7.13;;;8.70;99.90;;;;;;5082890;28;20389;-80
2021/03/21 12:31:12;;;;;;;7.73;6.33;;;8.80;99.90;;;;;;5086929;28;20846;-80
2021/03/21 12:33:39;;;;;;;6.80;5.50;;;8.70;99.90;;;;;;5084608;28;20379;-80
2021/03/21 12:36:14;;;;;;;8.80;6.30;;;8.70;99.90;;;;;;5085328;28;20383;-80
2021/03/21 12:38:48;;;;;;;5.73;5.10;;;8.60;99.90;;;;;;5086012;28;20428;-81
2021/03/21 12:41:35;;;;;;;6.00;5.40;;;8.50;99.90;;;;;;5086396;28;20454;-81
2021/03/21 12:44:29;;;;;;;6.10;5.10;;;8.40;99.90;;;;;;5086996;28;20423;-80
2021/03/21 12:47:15;;;;;;;7.10;5.00;;;8.30;99.90;;;;;;5082527;28;20438;-79
2021/03/21 12:49:47;;;;;;;6.23;4.13;;;8.30;99.90;;;;;;5080069;28;20398;-81
2021/03/21 12:52:17;;;;;;;6.00;4.30;;;8.30;99.90;;;;;;5066058;28;20421;-81
2021/03/21 12:54:45;;;;;;;7.90;6.60;;;8.20;99.90;;;;;;5082326;28;20401;-81
2021/03/21 12:57:13;;;;;;;9.13;4.90;;;8.30;99.90;;;;;;5081267;28;20488;-81
2021/03/21 12:59:43;;;;;;;6.47;4.70;;;8.40;99.90;;;;;;5066723;28;20397;-80
2021/03/21 13:02:23;;;;;;;5.47;4.53;;;8.70;99.90;;;;;;5068835;28;20465;-80
2021/03/21 13:04:49;;;;;;;5.57;4.37;;;9.80;99.90;;;;;;5079587;28;20739;-80
2021/03/21 13:07:15;;;;;;;5.43;4.57;;;10.30;99.90;;;;;;5079793;28;20457;-80
2021/03/21 13:09:41;;;;;;;4.17;3.73;;;10.50;99.90;;;;;;5079965;28;20461;-81
2021/03/21 13:12:08;;;;;;;6.90;5.17;;;11.10;99.90;;;;;;5078595;28;20417;-81
2021/03/21 13:14:34;;;;;;;5.40;4.20;;;11.20;99.90;;;;;;5079246;28;20375;-81
2021/03/21 13:17:00;;;;;;;7.93;4.87;;;10.90;99.90;;;;;;5079345;28;20398;-81
2021/03/21 13:19:26;;;;;;;4.43;4.03;;;10.50;99.90;;;;;;5080448;28;20400;-81
2021/03/21 13:21:52;;;;;;;4.37;3.70;;;10.40;99.90;;;;;;5081246;28;20859;-80
2021/03/21 13:24:18;;;;;;;6.10;4.73;;;10.10;99.90;;;;;;5083602;28;20394;-79
2021/03/21 13:26:44;;;;;;;4.50;4.10;;;9.80;99.90;;;;;;5089605;28;20950;-80
2021/03/21 13:29:10;;;;;;;4.00;3.60;;;9.60;99.90;;;;;;5083246;28;20159;-80
2021/03/21 13:31:35;;;;;;;5.30;4.80;;;10.10;99.90;;;;;;5083099;28;20398;-80
2021/03/21 13:34:01;;;;;;;3.97;3.10;;;10.40;99.90;;;;;;5088458;28;20459;-79
2021/03/21 13:36:27;;;;;;;4.10;3.43;;;10.50;99.90;;;;;;5088940;28;20159;-80
2021/03/21 13:38:53;;;;;;;3.47;2.97;;;10.60;99.90;;;;;;5088815;28;20866;-78
2021/03/21 13:41:19;;;;;;;3.80;2.97;;;10.50;99.90;;;;;;5081284;28;20223;-81
2021/03/21 13:43:45;;;;;;;5.87;3.70;;;10.30;99.90;;;;;;5080481;28;20369;-81